Time;durP1;ratioP1;P1;durP2;ratioP2;P2;SDS_P1;SDS_P2;PMS_P1;PMS_P2;Temp;Humidity;BMP_temperature;BMP_pressure;BME280_temperature;BME280_humidity;BME280_pressure;Samples;Min_cycle;Max_cycle;Signal;HPM_P1;HPM_P2
2023/08/30 00:00:40;;;;;;;106.93;101.63;;;;;;;;;;5104242;28;20449;-62
2023/08/30 00:03:06;;;;;;;114.38;108.72;;;;;;;;;;5102118;28;20039;-62
2023/08/30 00:05:31;;;;;;;116.57;110.80;;;;;;;;;;5103722;28;20120;-63
2023/08/30 00:07:57;;;;;;;110.95;105.43;;;;;;;;;;5104992;28;20830;-63
2023/08/30 00:10:22;;;;;;;112.43;106.78;;;;;;;;;;5104005;28;20028;-63
2023/08/30 00:12:48;;;;;;;111.43;105.70;;;;;;;;;;5102495;28;20080;-62
2023/08/30 00:15:14;;;;;;;103.95;98.80;;;;;;;;;;5102830;28;20038;-63
2023/08/30 00:17:39;;;;;;;104.07;98.93;;;;;;;;;;5101080;28;20063;-63
2023/08/30 00:20:06;;;;;;;98.80;92.30;;;;;;;;;;5101508;28;20043;-62
2023/08/30 00:22:35;;;;;;;92.93;88.28;;;;;;;;;;5102783;27;20040;-63
2023/08/30 00:25:01;;;;;;;93.72;89.03;;;;;;;;;;5101573;28;20035;-62
2023/08/30 00:27:27;;;;;;;94.95;90.15;;;;;;;;;;5101869;28;20031;-63
2023/08/30 00:29:52;;;;;;;89.07;84.65;;;;;;;;;;5100650;28;20493;-63
2023/08/30 00:32:17;;;;;;;90.15;85.63;;;;;;;;;;5103639;28;20027;-62
2023/08/30 00:34:43;;;;;;;89.25;84.80;;;;;;;;;;5103733;28;20480;-62
2023/08/30 00:37:08;;;;;;;91.50;86.97;;;;;;;;;;5102931;28;20039;-62
2023/08/30 00:39:37;;;;;;;76.75;72.93;;;;;;;;;;5102834;28;20042;-62
2023/08/30 00:42:05;;;;;;;76.10;72.32;;;;;;;;;;5084437;28;20485;-62
2023/08/30 00:44:32;;;;;;;73.45;69.78;;;;;;;;;;5102049;28;20061;-63
2023/08/30 00:46:57;;;;;;;75.60;71.85;;;;;;;;;;5082996;28;20050;-63
2023/08/30 00:49:23;;;;;;;75.18;71.43;;;;;;;;;;5102758;28;20031;-63
2023/08/30 00:51:49;;;;;;;70.85;67.30;;;;;;;;;;5101229;28;20030;-62
2023/08/30 00:54:15;;;;;;;64.05;60.85;;;;;;;;;;5081464;28;20032;-63
2023/08/30 00:56:41;;;;;;;68.43;64.97;;;;;;;;;;5101402;28;20597;-63
2023/08/30 00:59:06;;;;;;;73.72;70.03;;;;;;;;;;5101459;28;20096;-63
2023/08/30 01:01:32;;;;;;;79.90;75.95;;;;;;;;;;5102878;28;20423;-64
2023/08/30 01:03:57;;;;;;;75.55;71.65;;;;;;;;;;5100466;28;20100;-64
2023/08/30 01:06:23;;;;;;;85.47;81.20;;;;;;;;;;5104149;28;20090;-64
2023/08/30 01:08:51;;;;;;;92.47;87.85;;;;;;;;;;5101458;28;20105;-64
2023/08/30 01:11:35;;;;;;;99.20;94.25;;;;;;;;;;5100427;28;20028;-65
2023/08/30 01:14:11;;;;;;;89.03;84.57;;;;;;;;;;5078515;28;20458;-63
2023/08/30 01:16:37;;;;;;;88.95;84.50;;;;;;;;;;5102951;28;20063;-63
2023/08/30 01:19:38;;;;;;;85.13;80.90;;;;;;;;;;5082639;28;20453;-63
2023/08/30 01:22:23;;;;;;;;;;;;;;;;;;5102099;28;20286;-63
2023/08/30 01:25:14;;;;;;;57.40;54.53;;;;;;;;;;5079619;28;19912;-63
2023/08/30 01:27:40;;;;;;;66.20;62.78;;;;;;;;;;5082340;28;20035;-63
2023/08/30 01:30:08;;;;;;;77.47;73.63;;;;;;;;;;5100602;28;20043;-64
2023/08/30 01:32:36;;;;;;;81.32;77.30;;;;;;;;;;5099714;28;20312;-63
2023/08/30 01:35:04;;;;;;;84.63;80.47;;;;;;;;;;5099351;28;20043;-64
2023/08/30 01:37:31;;;;;;;94.97;90.25;;;;;;;;;;5097269;28;20036;-64
2023/08/30 01:39:57;;;;;;;112.78;107.20;;;;;;;;;;5098864;28;20027;-63
2023/08/30 01:42:24;;;;;;;119.35;113.43;;;;;;;;;;5084616;28;20389;-63
2023/08/30 01:44:54;;;;;;;113.50;107.85;;;;;;;;;;5101920;28;20331;-63
2023/08/30 01:47:20;;;;;;;114.18;108.32;;;;;;;;;;5100624;28;20035;-63
2023/08/30 01:49:46;;;;;;;105.80;100.55;;;;;;;;;;5101466;28;20347;-63
2023/08/30 01:52:13;;;;;;;94.18;89.50;;;;;;;;;;5102308;28;20043;-63
2023/08/30 01:54:40;;;;;;;93.10;88.45;;;;;;;;;;5084039;28;20089;-62
2023/08/30 01:57:06;;;;;;;92.15;87.55;;;;;;;;;;5100766;28;20054;-63
2023/08/30 01:59:31;;;;;;;95.53;90.78;;;;;;;;;;5100870;28;20101;-63
2023/08/30 02:01:57;;;;;;;96.75;91.80;;;;;;;;;;5101431;28;20462;-63
2023/08/30 02:04:22;;;;;;;101.55;96.50;;;;;;;;;;5100371;28;20482;-63
2023/08/30 02:07:00;;;;;;;98.93;93.97;;;;;;;;;;5100572;28;20055;-63
2023/08/30 02:09:50;;;;;;;91.93;87.32;;;;;;;;;;5102279;28;20508;-62
2023/08/30 02:12:16;;;;;;;100.57;95.53;;;;;;;;;;5100558;28;20107;-62
2023/08/30 02:14:48;;;;;;;101.55;96.43;;;;;;;;;;5082654;28;20046;-62
2023/08/30 02:17:15;;;;;;;110.28;104.78;;;;;;;;;;5101484;28;20031;-64
2023/08/30 02:19:44;;;;;;;106.35;101.07;;;;;;;;;;5102457;28;20028;-62
2023/08/30 02:22:10;;;;;;;98.53;93.60;;;;;;;;;;5102612;28;20074;-62
2023/08/30 02:24:35;;;;;;;105.55;100.28;;;;;;;;;;5100446;28;20147;-68
2023/08/30 02:27:01;;;;;;;113.10;107.43;;;;;;;;;;5101663;28;20066;-64
2023/08/30 02:29:26;;;;;;;113.25;107.60;;;;;;;;;;5082438;28;20031;-68
2023/08/30 02:31:52;;;;;;;119.90;113.95;;;;;;;;;;5100700;28;20039;-69
2023/08/30 02:34:17;;;;;;;109.70;104.25;;;;;;;;;;5081587;28;20845;-63
2023/08/30 02:36:42;;;;;;;110.22;104.50;;;;;;;;;;5104585;28;20071;-63
2023/08/30 02:39:08;;;;;;;109.97;104.50;;;;;;;;;;5084747;28;20523;-68
2023/08/30 02:41:34;;;;;;;106.10;100.82;;;;;;;;;;5105399;28;20036;-67
2023/08/30 02:43:59;;;;;;;106.45;101.20;;;;;;;;;;5104384;28;20031;-68
2023/08/30 02:46:24;;;;;;;112.80;106.90;;;;;;;;;;5103636;28;20043;-68
2023/08/30 02:48:50;;;;;;;113.75;108.00;;;;;;;;;;5105362;28;20131;-63
2023/08/30 02:51:16;;;;;;;116.25;110.43;;;;;;;;;;5104654;27;20339;-63
2023/08/30 02:53:42;;;;;;;112.13;106.55;;;;;;;;;;5100990;28;20035;-63
2023/08/30 02:56:07;;;;;;;103.75;98.60;;;;;;;;;;5103297;28;20051;-63
2023/08/30 02:58:32;;;;;;;104.55;99.38;;;;;;;;;;5105244;28;20044;-64
2023/08/30 03:00:58;;;;;;;102.15;97.07;;;;;;;;;;5104682;28;20073;-67
2023/08/30 03:03:23;;;;;;;99.20;94.25;;;;;;;;;;5081290;28;20040;-68
2023/08/30 03:05:48;;;;;;;97.00;92.15;;;;;;;;;;5104436;28;20027;-68
2023/08/30 03:08:14;;;;;;;93.53;88.88;;;;;;;;;;5103572;28;20016;-68
2023/08/30 03:10:40;;;;;;;94.22;89.53;;;;;;;;;;5105358;28;20031;-63
2023/08/30 03:13:05;;;;;;;93.30;88.65;;;;;;;;;;5104323;28;20476;-63
2023/08/30 03:15:33;;;;;;;94.10;89.35;;;;;;;;;;5104397;28;20039;-68
2023/08/30 03:17:59;;;;;;;92.97;88.35;;;;;;;;;;5104562;27;20407;-67
2023/08/30 03:20:25;;;;;;;90.10;85.63;;;;;;;;;;5105968;28;20032;-68
2023/08/30 03:22:50;;;;;;;86.30;81.68;;;;;;;;;;5106192;28;20141;-68
2023/08/30 03:25:15;;;;;;;90.88;86.22;;;;;;;;;;5101542;28;20358;-69
2023/08/30 03:27:43;;;;;;;95.78;91.03;;;;;;;;;;5104163;28;20036;-68
2023/08/30 03:30:09;;;;;;;105.30;100.05;;;;;;;;;;5101344;28;20309;-68
2023/08/30 03:32:37;;;;;;;104.13;98.93;;;;;;;;;;5104932;28;20370;-69
2023/08/30 03:35:03;;;;;;;105.75;100.50;;;;;;;;;;5104998;28;20036;-67
2023/08/30 03:37:28;;;;;;;100.53;95.50;;;;;;;;;;5105286;28;20032;-68
2023/08/30 03:39:54;;;;;;;113.78;107.70;;;;;;;;;;5084296;28;20046;-63
2023/08/30 03:42:19;;;;;;;112.53;106.93;;;;;;;;;;5103853;28;20035;-63
2023/08/30 03:44:45;;;;;;;108.35;102.97;;;;;;;;;;5085750;28;20035;-68
2023/08/30 03:47:10;;;;;;;105.00;99.68;;;;;;;;;;5103046;28;20043;-68
2023/08/30 03:49:36;;;;;;;112.97;107.40;;;;;;;;;;5105070;28;20030;-64
2023/08/30 03:52:02;;;;;;;106.20;100.80;;;;;;;;;;5103687;28;20140;-68
2023/08/30 03:54:27;;;;;;;104.78;99.55;;;;;;;;;;5085250;28;20481;-68
2023/08/30 03:56:53;;;;;;;108.32;102.72;;;;;;;;;;5085053;28;20027;-63
2023/08/30 03:59:18;;;;;;;110.53;105.03;;;;;;;;;;5103027;28;20118;-68
2023/08/30 04:01:44;;;;;;;98.88;93.97;;;;;;;;;;5102029;28;20047;-64
2023/08/30 04:04:10;;;;;;;100.28;95.32;;;;;;;;;;5083501;28;20123;-68
2023/08/30 04:06:35;;;;;;;108.07;102.65;;;;;;;;;;5084829;28;20403;-64
2023/08/30 04:09:00;;;;;;;97.43;92.57;;;;;;;;;;5100882;28;21245;-64
2023/08/30 04:11:26;;;;;;;97.93;93.07;;;;;;;;;;5103942;28;20048;-68
2023/08/30 04:13:52;;;;;;;92.68;88.07;;;;;;;;;;5081947;28;20124;-69
2023/08/30 04:16:17;;;;;;;102.88;97.72;;;;;;;;;;5102967;28;20153;-68
2023/08/30 04:18:43;;;;;;;102.57;97.50;;;;;;;;;;5101607;28;20078;-64
2023/08/30 04:21:08;;;;;;;111.20;105.65;;;;;;;;;;5102505;28;20451;-69
2023/08/30 04:23:34;;;;;;;103.40;98.22;;;;;;;;;;5101432;28;20404;-69
2023/08/30 04:25:59;;;;;;;101.43;96.40;;;;;;;;;;5099905;28;20089;-69
2023/08/30 04:28:26;;;;;;;103.15;98.03;;;;;;;;;;5099895;28;20062;-69
2023/08/30 04:30:54;;;;;;;103.35;98.18;;;;;;;;;;5064700;28;20059;-69
2023/08/30 04:33:20;;;;;;;107.63;102.20;;;;;;;;;;5100891;28;20036;-69
2023/08/30 04:35:50;;;;;;;112.53;106.88;;;;;;;;;;5102978;28;20031;-69
2023/08/30 04:38:15;;;;;;;107.13;101.40;;;;;;;;;;5101817;28;20466;-69
2023/08/30 04:40:41;;;;;;;108.13;102.72;;;;;;;;;;5101932;27;20042;-64
2023/08/30 04:43:06;;;;;;;107.07;101.72;;;;;;;;;;5081396;28;20036;-64
2023/08/30 04:45:34;;;;;;;108.88;103.45;;;;;;;;;;5098525;28;20043;-69
2023/08/30 04:47:59;;;;;;;117.28;111.45;;;;;;;;;;5101676;28;20040;-68
2023/08/30 04:50:25;;;;;;;107.38;102.03;;;;;;;;;;5100739;28;20028;-67
2023/08/30 04:52:50;;;;;;;104.63;99.38;;;;;;;;;;5102715;28;20031;-69
2023/08/30 04:55:16;;;;;;;107.57;102.03;;;;;;;;;;5103178;28;20031;-63
2023/08/30 04:57:44;;;;;;;104.03;98.75;;;;;;;;;;5102245;28;20031;-68
2023/08/30 05:00:11;;;;;;;106.65;101.38;;;;;;;;;;5103292;28;20028;-63
2023/08/30 05:02:36;;;;;;;106.65;101.30;;;;;;;;;;5098467;28;20050;-68
2023/08/30 05:05:02;;;;;;;102.07;97.00;;;;;;;;;;5100902;28;20700;-68
2023/08/30 05:07:28;;;;;;;105.57;100.28;;;;;;;;;;5101464;28;20043;-68
2023/08/30 05:09:53;;;;;;;103.35;98.20;;;;;;;;;;5100534;28;20046;-68
2023/08/30 05:12:18;;;;;;;100.93;95.78;;;;;;;;;;5099336;28;20028;-63
2023/08/30 05:14:44;;;;;;;101.60;96.50;;;;;;;;;;5080781;28;20038;-62
2023/08/30 05:17:09;;;;;;;107.40;101.95;;;;;;;;;;5103546;28;20442;-64
2023/08/30 05:19:35;;;;;;;104.72;99.53;;;;;;;;;;5102936;28;20028;-63
2023/08/30 05:22:00;;;;;;;107.35;101.97;;;;;;;;;;5079455;28;20092;-67
2023/08/30 05:24:26;;;;;;;101.80;96.70;;;;;;;;;;5102095;28;20092;-63
2023/08/30 05:26:52;;;;;;;98.93;94.00;;;;;;;;;;5101664;28;20461;-63
2023/08/30 05:29:17;;;;;;;103.18;98.05;;;;;;;;;;5101641;28;20046;-68
2023/08/30 05:31:43;;;;;;;101.60;96.50;;;;;;;;;;5101684;28;20068;-63
2023/08/30 05:34:09;;;;;;;95.40;90.55;;;;;;;;;;5084018;28;20037;-68
2023/08/30 05:36:35;;;;;;;98.85;93.93;;;;;;;;;;5080355;28;20046;-69
2023/08/30 05:39:00;;;;;;;100.50;95.13;;;;;;;;;;5100424;28;20375;-63
2023/08/30 05:41:26;;;;;;;90.88;86.30;;;;;;;;;;5063146;28;20042;-63
2023/08/30 05:43:52;;;;;;;80.55;76.53;;;;;;;;;;5099574;28;20036;-63
2023/08/30 05:46:17;;;;;;;82.72;78.38;;;;;;;;;;5082772;28;20067;-63
2023/08/30 05:48:43;;;;;;;66.97;63.63;;;;;;;;;;5100800;28;20291;-68
2023/08/30 05:51:08;;;;;;;62.42;59.25;;;;;;;;;;5082377;28;20096;-63
2023/08/30 05:53:33;;;;;;;62.47;59.33;;;;;;;;;;5102782;28;20031;-68
2023/08/30 05:55:59;;;;;;;58.45;55.40;;;;;;;;;;5100359;28;20109;-68
2023/08/30 05:58:24;;;;;;;56.20;53.33;;;;;;;;;;5102138;28;20220;-68
2023/08/30 06:00:50;;;;;;;58.55;55.58;;;;;;;;;;5101852;28;20060;-63
2023/08/30 06:03:15;;;;;;;57.65;54.53;;;;;;;;;;5080380;28;20027;-63
2023/08/30 06:05:42;;;;;;;60.55;57.47;;;;;;;;;;5104064;28;20019;-63
2023/08/30 06:08:08;;;;;;;54.65;51.70;;;;;;;;;;5100139;28;20024;-63
2023/08/30 06:10:34;;;;;;;45.92;43.58;;;;;;;;;;5101971;28;20112;-63
2023/08/30 06:12:59;;;;;;;45.90;43.55;;;;;;;;;;5102205;28;20202;-63
2023/08/30 06:15:24;;;;;;;36.53;34.60;;;;;;;;;;5100209;28;20081;-68
2023/08/30 06:17:50;;;;;;;33.53;31.73;;;;;;;;;;5097033;28;20645;-69
2023/08/30 06:20:15;;;;;;;34.05;32.25;;;;;;;;;;5101987;28;20111;-68
2023/08/30 06:22:42;;;;;;;33.97;32.20;;;;;;;;;;5101204;28;20031;-70
2023/08/30 06:25:08;;;;;;;32.55;30.85;;;;;;;;;;5101835;28;20366;-61
2023/08/30 06:27:36;;;;;;;25.13;23.75;;;;;;;;;;5099367;28;20041;-62
2023/08/30 06:30:03;;;;;;;25.90;24.35;;;;;;;;;;5071725;28;20071;-62
2023/08/30 06:32:28;;;;;;;22.48;21.15;;;;;;;;;;5099694;28;20063;-62
2023/08/30 06:34:54;;;;;;;22.25;20.98;;;;;;;;;;5096535;28;20051;-61
2023/08/30 06:37:19;;;;;;;23.52;22.23;;;;;;;;;;5095951;28;20382;-65
2023/08/30 06:39:44;;;;;;;22.17;20.77;;;;;;;;;;5101093;28;20039;-62
2023/08/30 06:42:10;;;;;;;20.52;19.23;;;;;;;;;;5098701;28;20244;-62
2023/08/30 06:44:35;;;;;;;20.13;18.92;;;;;;;;;;5098387;28;20339;-64
2023/08/30 06:47:01;;;;;;;20.20;19.00;;;;;;;;;;5079106;28;20032;-62
2023/08/30 06:49:26;;;;;;;20.38;19.17;;;;;;;;;;5081834;28;20082;-62
2023/08/30 06:51:51;;;;;;;20.17;18.88;;;;;;;;;;5099880;28;20028;-61
2023/08/30 06:54:17;;;;;;;20.92;19.70;;;;;;;;;;5099984;28;20035;-64
2023/08/30 06:56:57;;;;;;;22.17;20.92;;;;;;;;;;5081037;28;20035;-62
2023/08/30 06:59:22;;;;;;;21.05;19.80;;;;;;;;;;5099613;28;20042;-63
2023/08/30 07:01:47;;;;;;;23.92;22.45;;;;;;;;;;5101002;28;20036;-64
2023/08/30 07:04:12;;;;;;;24.85;23.45;;;;;;;;;;5100443;28;20020;-64
2023/08/30 07:06:38;;;;;;;24.40;22.83;;;;;;;;;;5096765;28;20045;-64
2023/08/30 07:09:06;;;;;;;27.60;26.08;;;;;;;;;;5098191;28;20031;-68
2023/08/30 07:11:31;;;;;;;28.90;27.38;;;;;;;;;;5100611;28;20036;-64
2023/08/30 07:13:57;;;;;;;36.47;34.53;;;;;;;;;;5100244;28;20051;-70
2023/08/30 07:16:22;;;;;;;37.80;35.85;;;;;;;;;;5100191;28;20347;-70
2023/08/30 07:18:47;;;;;;;36.67;34.72;;;;;;;;;;5101122;28;20454;-70
2023/08/30 07:21:13;;;;;;;41.72;39.50;;;;;;;;;;5101026;28;20353;-70
2023/08/30 07:23:38;;;;;;;43.97;41.65;;;;;;;;;;5103765;28;20131;-70
2023/08/30 07:26:04;;;;;;;43.92;41.58;;;;;;;;;;5104764;28;20582;-69
2023/08/30 07:28:30;;;;;;;47.22;44.65;;;;;;;;;;5103320;28;20035;-64
2023/08/30 07:31:02;;;;;;;45.22;42.88;;;;;;;;;;5103752;28;20034;-64
2023/08/30 07:33:28;;;;;;;39.90;37.78;;;;;;;;;;5084555;28;20050;-65
2023/08/30 07:35:53;;;;;;;41.55;39.22;;;;;;;;;;5103288;28;20884;-71
2023/08/30 07:38:19;;;;;;;42.65;40.42;;;;;;;;;;5104443;28;20419;-70
2023/08/30 07:40:44;;;;;;;51.45;48.78;;;;;;;;;;5103462;28;20032;-72
2023/08/30 07:43:09;;;;;;;56.45;53.45;;;;;;;;;;5101748;28;20213;-70
2023/08/30 07:45:35;;;;;;;65.43;61.70;;;;;;;;;;5102716;28;20031;-70
2023/08/30 07:48:00;;;;;;;69.85;66.35;;;;;;;;;;5102274;28;20039;-64
2023/08/30 07:50:25;;;;;;;77.78;73.88;;;;;;;;;;5103674;28;20036;-65
2023/08/30 07:52:51;;;;;;;76.30;72.47;;;;;;;;;;5104114;28;20059;-64
2023/08/30 07:55:16;;;;;;;76.75;72.65;;;;;;;;;;5104746;28;20035;-64
2023/08/30 07:57:41;;;;;;;72.57;68.95;;;;;;;;;;5104218;28;20047;-66
2023/08/30 08:00:07;;;;;;;75.05;71.25;;;;;;;;;;5101443;28;20058;-64
2023/08/30 08:02:33;;;;;;;69.40;65.93;;;;;;;;;;5101738;28;20118;-64
2023/08/30 08:04:58;;;;;;;68.57;65.13;;;;;;;;;;5104103;28;20306;-64
2023/08/30 08:07:24;;;;;;;82.05;77.97;;;;;;;;;;5084020;28;20424;-65
2023/08/30 08:09:49;;;;;;;86.95;82.57;;;;;;;;;;5082297;28;20036;-65
2023/08/30 08:12:15;;;;;;;76.65;72.78;;;;;;;;;;5104192;28;20204;-65
2023/08/30 08:14:40;;;;;;;87.05;82.70;;;;;;;;;;5083031;28;20224;-64
2023/08/30 08:17:05;;;;;;;92.95;88.35;;;;;;;;;;5081370;28;20044;-64
2023/08/30 08:19:31;;;;;;;92.55;87.78;;;;;;;;;;5103866;28;20038;-64
2023/08/30 08:21:56;;;;;;;89.93;85.45;;;;;;;;;;5103420;28;20350;-65
2023/08/30 08:24:21;;;;;;;64.18;60.70;;;;;;;;;;5100367;28;20335;-65
2023/08/30 08:26:47;;;;;;;29.92;28.27;;;;;;;;;;5100290;28;20799;-65
2023/08/30 08:29:12;;;;;;;24.35;22.95;;;;;;;;;;5102158;28;20533;-65
2023/08/30 08:31:39;;;;;;;29.02;27.42;;;;;;;;;;5099486;28;20043;-65
2023/08/30 08:34:09;;;;;;;27.08;25.52;;;;;;;;;;5100175;28;20031;-65
2023/08/30 08:36:35;;;;;;;18.67;17.40;;;;;;;;;;5099310;28;20032;-65
2023/08/30 08:39:01;;;;;;;16.88;15.88;;;;;;;;;;5101201;28;20492;-65
2023/08/30 08:41:35;;;;;;;18.88;17.73;;;;;;;;;;5100766;28;20499;-71
2023/08/30 08:44:01;;;;;;;21.77;20.48;;;;;;;;;;5102339;28;20036;-64
2023/08/30 08:46:29;;;;;;;28.15;26.63;;;;;;;;;;5080016;28;20026;-71
2023/08/30 08:48:57;;;;;;;20.10;18.95;;;;;;;;;;5084512;27;20035;-71
2023/08/30 08:51:24;;;;;;;16.90;15.80;;;;;;;;;;5104185;28;20651;-70
2023/08/30 08:53:50;;;;;;;23.25;21.98;;;;;;;;;;5087047;28;20505;-71
2023/08/30 08:56:16;;;;;;;15.90;14.95;;;;;;;;;;5106517;28;20027;-64
2023/08/30 08:58:43;;;;;;;16.67;15.63;;;;;;;;;;5107081;27;20061;-71
2023/08/30 09:01:09;;;;;;;15.55;14.57;;;;;;;;;;5106344;28;20059;-65
2023/08/30 09:03:34;;;;;;;14.10;13.20;;;;;;;;;;5081614;28;20090;-70
2023/08/30 09:06:02;;;;;;;15.25;14.35;;;;;;;;;;5102782;28;20118;-64
2023/08/30 09:08:27;;;;;;;18.80;17.73;;;;;;;;;;5100156;28;20054;-64
2023/08/30 09:10:53;;;;;;;16.30;15.30;;;;;;;;;;5101074;28;20035;-64
2023/08/30 09:13:20;;;;;;;17.45;16.35;;;;;;;;;;5101128;28;20128;-64
2023/08/30 09:15:46;;;;;;;16.48;15.48;;;;;;;;;;5082236;28;20039;-64
2023/08/30 09:18:18;;;;;;;16.85;15.77;;;;;;;;;;5082165;28;20182;-70
2023/08/30 09:20:44;;;;;;;20.80;19.67;;;;;;;;;;5101665;27;20040;-70
2023/08/30 09:23:24;;;;;;;17.50;16.50;;;;;;;;;;5101965;28;20030;-65
2023/08/30 09:25:55;;;;;;;17.00;16.00;;;;;;;;;;5099888;28;20038;-64
2023/08/30 09:28:20;;;;;;;14.48;13.55;;;;;;;;;;5099410;28;20296;-65
2023/08/30 09:30:52;;;;;;;15.18;14.27;;;;;;;;;;5100479;28;20876;-64
2023/08/30 09:33:22;;;;;;;15.77;14.75;;;;;;;;;;5100704;28;20531;-70
2023/08/30 09:35:47;;;;;;;16.63;15.60;;;;;;;;;;5102823;28;20040;-70
2023/08/30 09:38:18;;;;;;;14.45;13.55;;;;;;;;;;5102703;28;20036;-64
2023/08/30 09:40:44;;;;;;;15.60;14.60;;;;;;;;;;5082284;28;20474;-64
2023/08/30 09:43:18;;;;;;;16.90;15.80;;;;;;;;;;5101352;28;20256;-71
2023/08/30 09:45:43;;;;;;;14.20;13.32;;;;;;;;;;5100299;28;20078;-70
2023/08/30 09:48:09;;;;;;;22.45;21.17;;;;;;;;;;5102490;28;20067;-70
2023/08/30 09:50:35;;;;;;;19.63;18.50;;;;;;;;;;5095963;28;20093;-70
2023/08/30 09:53:11;;;;;;;43.33;41.08;;;;;;;;;;5100706;28;20315;-70
2023/08/30 09:55:36;;;;;;;48.95;46.40;;;;;;;;;;5100223;28;20814;-70
2023/08/30 09:58:04;;;;;;;38.83;36.78;;;;;;;;;;5100938;28;20097;-64
2023/08/30 10:00:30;;;;;;;58.33;55.35;;;;;;;;;;5100642;28;20032;-64
2023/08/30 10:02:58;;;;;;;72.10;68.47;;;;;;;;;;5101143;28;20038;-64
2023/08/30 10:05:24;;;;;;;52.85;50.13;;;;;;;;;;5101467;28;20047;-64
2023/08/30 10:07:50;;;;;;;60.17;57.13;;;;;;;;;;5100100;28;20535;-64
2023/08/30 10:10:16;;;;;;;49.13;46.63;;;;;;;;;;5101880;28;20088;-64
2023/08/30 10:12:45;;;;;;;77.90;73.95;;;;;;;;;;5100902;28;20302;-64
2023/08/30 10:15:11;;;;;;;87.55;83.20;;;;;;;;;;5100389;28;20126;-64
2023/08/30 10:17:41;;;;;;;98.45;93.55;;;;;;;;;;5099111;28;20062;-65
2023/08/30 10:20:07;;;;;;;86.38;81.97;;;;;;;;;;5099814;28;20037;-65
2023/08/30 10:22:36;;;;;;;73.70;70.03;;;;;;;;;;5078821;28;20039;-65
2023/08/30 10:25:08;;;;;;;84.45;80.20;;;;;;;;;;5082678;28;20110;-64
2023/08/30 10:27:35;;;;;;;56.80;53.90;;;;;;;;;;5099330;28;20032;-65
2023/08/30 10:30:03;;;;;;;38.33;36.33;;;;;;;;;;5100065;28;20492;-72
2023/08/30 10:32:29;;;;;;;40.42;38.35;;;;;;;;;;5101541;28;20118;-65
2023/08/30 10:34:54;;;;;;;37.20;35.22;;;;;;;;;;5098133;28;20605;-64
2023/08/30 10:37:26;;;;;;;34.90;33.00;;;;;;;;;;5098160;28;20326;-65
2023/08/30 10:39:52;;;;;;;33.15;31.45;;;;;;;;;;5099955;28;20039;-71
2023/08/30 10:42:22;;;;;;;29.13;27.58;;;;;;;;;;5101574;28;20807;-71
2023/08/30 10:44:52;;;;;;;30.42;28.85;;;;;;;;;;5098282;28;20032;-70
2023/08/30 10:47:30;;;;;;;36.25;34.35;;;;;;;;;;5097978;28;20039;-64
2023/08/30 10:50:04;;;;;;;38.83;36.85;;;;;;;;;;5082078;28;20046;-63
2023/08/30 10:52:30;;;;;;;58.38;55.42;;;;;;;;;;5100598;28;20035;-69
2023/08/30 10:55:09;;;;;;;59.35;56.38;;;;;;;;;;5098237;28;20028;-70
2023/08/30 10:57:35;;;;;;;56.90;54.03;;;;;;;;;;5087981;28;20023;-69
2023/08/30 11:00:13;;;;;;;92.97;88.43;;;;;;;;;;5104975;28;20031;-69
2023/08/30 11:02:43;;;;;;;30.45;28.85;;;;;;;;;;5084261;28;20379;-63
2023/08/30 11:05:09;;;;;;;83.05;78.90;;;;;;;;;;5101891;28;20096;-70
2023/08/30 11:07:34;;;;;;;92.38;87.85;;;;;;;;;;5103431;28;20455;-70
2023/08/30 11:10:00;;;;;;;93.05;88.45;;;;;;;;;;5103199;28;20032;-70
2023/08/30 11:12:25;;;;;;;78.60;74.70;;;;;;;;;;5105766;28;20052;-71
2023/08/30 11:14:54;;;;;;;57.42;54.53;;;;;;;;;;5104750;28;20110;-63
2023/08/30 11:17:20;;;;;;;66.78;63.45;;;;;;;;;;5104290;28;20486;-71
2023/08/30 11:19:45;;;;;;;100.35;95.43;;;;;;;;;;5084952;28;20020;-63
2023/08/30 11:22:16;;;;;;;73.97;70.28;;;;;;;;;;5084537;28;20039;-70
2023/08/30 11:24:42;;;;;;;70.05;66.57;;;;;;;;;;5085270;28;20039;-63
2023/08/30 11:27:07;;;;;;;97.82;93.03;;;;;;;;;;5105560;28;20040;-70
2023/08/30 11:29:33;;;;;;;90.97;86.47;;;;;;;;;;5105037;28;20469;-71
2023/08/30 11:31:58;;;;;;;82.10;78.00;;;;;;;;;;5102864;28;20039;-63
2023/08/30 11:34:24;;;;;;;52.92;50.20;;;;;;;;;;5104738;28;20104;-63
2023/08/30 11:36:50;;;;;;;30.30;28.70;;;;;;;;;;5100561;27;20470;-70
2023/08/30 11:39:17;;;;;;;37.03;35.13;;;;;;;;;;5101720;28;20036;-69
2023/08/30 11:41:43;;;;;;;47.13;44.72;;;;;;;;;;5105722;28;20050;-70
2023/08/30 11:44:09;;;;;;;52.42;49.75;;;;;;;;;;5103012;28;20039;-70
2023/08/30 11:46:34;;;;;;;77.90;74.03;;;;;;;;;;5104935;28;20023;-69
2023/08/30 11:49:00;;;;;;;144.52;137.43;;;;;;;;;;5104538;28;20024;-70
2023/08/30 11:51:25;;;;;;;116.18;110.45;;;;;;;;;;5106095;28;20435;-70
2023/08/30 11:53:52;;;;;;;46.63;44.22;;;;;;;;;;5102184;28;20351;-70
2023/08/30 11:56:19;;;;;;;94.40;89.72;;;;;;;;;;5084338;28;20035;-70
2023/08/30 11:58:44;;;;;;;72.90;69.15;;;;;;;;;;5086119;28;20020;-64
2023/08/30 12:01:09;;;;;;;42.17;39.97;;;;;;;;;;5104460;28;20636;-64
2023/08/30 12:03:36;;;;;;;51.03;48.47;;;;;;;;;;5101495;28;20035;-70
2023/08/30 12:06:01;;;;;;;43.78;41.47;;;;;;;;;;5104417;28;20096;-70
2023/08/30 12:08:31;;;;;;;39.20;37.20;;;;;;;;;;5103642;28;20039;-69
2023/08/30 12:10:57;;;;;;;41.67;39.57;;;;;;;;;;5103808;28;20046;-69
2023/08/30 12:13:26;;;;;;;44.20;41.92;;;;;;;;;;5085211;28;20257;-70
2023/08/30 12:15:53;;;;;;;39.65;37.58;;;;;;;;;;5103483;28;20039;-70
2023/08/30 12:18:23;;;;;;;53.08;50.33;;;;;;;;;;5102835;28;20027;-64
2023/08/30 12:21:01;;;;;;;38.03;35.90;;;;;;;;;;5104663;28;20031;-64
2023/08/30 12:23:28;;;;;;;36.60;34.60;;;;;;;;;;5104020;28;20635;-64
2023/08/30 12:26:03;;;;;;;45.80;43.45;;;;;;;;;;5101981;28;20551;-65
2023/08/30 12:28:29;;;;;;;68.32;64.85;;;;;;;;;;5083341;28;20046;-66
2023/08/30 12:30:56;;;;;;;71.65;68.07;;;;;;;;;;5101497;28;20200;-64
2023/08/30 12:33:21;;;;;;;90.85;86.25;;;;;;;;;;5099660;28;20036;-64
2023/08/30 12:35:47;;;;;;;101.90;96.85;;;;;;;;;;5100165;28;20027;-71
2023/08/30 12:38:17;;;;;;;91.30;86.75;;;;;;;;;;5085430;28;20035;-63
2023/08/30 12:40:46;;;;;;;28.27;26.77;;;;;;;;;;5100914;28;20036;-63
2023/08/30 12:43:13;;;;;;;30.20;28.63;;;;;;;;;;5102124;28;20039;-64
2023/08/30 12:45:42;;;;;;;32.85;31.05;;;;;;;;;;5080286;28;20473;-69
2023/08/30 12:48:08;;;;;;;36.53;34.55;;;;;;;;;;5102154;27;20043;-64
2023/08/30 12:50:38;;;;;;;31.90;30.00;;;;;;;;;;5102576;28;20036;-70
2023/08/30 12:53:04;;;;;;;22.40;21.20;;;;;;;;;;5100696;28;20027;-70
2023/08/30 12:55:30;;;;;;;30.88;28.88;;;;;;;;;;5102794;28;20031;-71
2023/08/30 12:57:56;;;;;;;27.70;26.23;;;;;;;;;;5100203;28;20546;-64
2023/08/30 13:00:22;;;;;;;29.70;28.10;;;;;;;;;;5102172;28;20579;-65
2023/08/30 13:02:47;;;;;;;29.48;27.90;;;;;;;;;;5102363;28;20119;-72
2023/08/30 13:05:12;;;;;;;27.80;26.25;;;;;;;;;;5102929;28;20126;-65
2023/08/30 13:07:39;;;;;;;30.25;28.65;;;;;;;;;;5103727;28;20462;-70
2023/08/30 13:10:05;;;;;;;31.55;29.83;;;;;;;;;;5103730;28;20446;-71
2023/08/30 13:12:31;;;;;;;22.75;21.55;;;;;;;;;;5103777;28;20575;-73
2023/08/30 13:14:56;;;;;;;24.48;23.08;;;;;;;;;;5103325;28;20050;-73
2023/08/30 13:17:22;;;;;;;22.52;21.25;;;;;;;;;;5099965;28;20488;-67
2023/08/30 13:19:47;;;;;;;19.83;18.70;;;;;;;;;;5099939;28;20350;-68
2023/08/30 13:22:12;;;;;;;19.60;18.27;;;;;;;;;;5082886;28;20023;-68
2023/08/30 13:24:38;;;;;;;16.95;15.95;;;;;;;;;;5102362;28;20031;-72
2023/08/30 13:27:04;;;;;;;18.25;17.25;;;;;;;;;;5101835;28;20035;-68
2023/08/30 13:29:29;;;;;;;19.33;18.23;;;;;;;;;;5101591;28;20104;-67
2023/08/30 13:31:55;;;;;;;18.02;17.02;;;;;;;;;;5101545;28;20483;-67
2023/08/30 13:34:20;;;;;;;19.23;18.13;;;;;;;;;;5081339;28;20042;-68
2023/08/30 13:36:46;;;;;;;16.77;15.77;;;;;;;;;;5101221;28;20351;-68
2023/08/30 13:39:11;;;;;;;16.02;15.10;;;;;;;;;;5100355;28;20054;-68
2023/08/30 13:41:36;;;;;;;17.80;16.50;;;;;;;;;;5099092;28;20591;-68
2023/08/30 13:44:05;;;;;;;17.92;16.90;;;;;;;;;;5101947;28;20040;-74
2023/08/30 13:46:30;;;;;;;15.90;15.00;;;;;;;;;;5103228;28;20039;-74
2023/08/30 13:48:56;;;;;;;16.17;15.27;;;;;;;;;;5101321;28;20093;-67
2023/08/30 13:51:23;;;;;;;17.33;16.33;;;;;;;;;;5083856;28;20711;-74
2023/08/30 13:53:48;;;;;;;15.52;14.63;;;;;;;;;;5098375;28;20046;-74
2023/08/30 13:56:14;;;;;;;16.30;15.40;;;;;;;;;;5101072;28;20031;-74
2023/08/30 13:58:39;;;;;;;17.30;16.30;;;;;;;;;;5098807;28;20376;-75
2023/08/30 14:01:05;;;;;;;15.10;14.20;;;;;;;;;;5100287;28;20039;-68
2023/08/30 14:03:30;;;;;;;18.00;16.95;;;;;;;;;;5080829;28;20096;-75
2023/08/30 14:05:56;;;;;;;21.02;19.92;;;;;;;;;;5101467;28;20036;-74
2023/08/30 14:08:21;;;;;;;17.50;16.50;;;;;;;;;;5101405;28;20098;-74